createdAt,value
2022-12-31T00:04:37.710Z,12.1
2022-12-31T00:14:39.508Z,12.2
2022-12-31T00:24:41.769Z,12.3
2022-12-31T00:34:44.103Z,12.3
2022-12-31T00:44:46.358Z,12.3
2022-12-31T00:54:48.656Z,12.2
2022-12-31T01:04:50.976Z,12
2022-12-31T01:14:52.866Z,11.9
2022-12-31T01:24:54.838Z,11.8
2022-12-31T01:34:56.884Z,11.7
2022-12-31T01:44:59.148Z,11.7
2022-12-31T01:55:01.409Z,11.8
2022-12-31T02:05:03.478Z,12.1
2022-12-31T02:15:05.732Z,12.5
2022-12-31T02:25:08.179Z,12.7
2022-12-31T02:45:12.310Z,13.4
2022-12-31T02:55:14.928Z,13.4
2022-12-31T03:05:17.048Z,13.8
2022-12-31T03:15:18.944Z,14.1
2022-12-31T03:25:20.672Z,14.2
2022-12-31T03:35:22.333Z,14.1
2022-12-31T03:55:26.440Z,13.5
2022-12-31T04:05:28.366Z,13.6
2022-12-31T04:15:30.808Z,13.4
2022-12-31T04:25:32.710Z,13.2
2022-12-31T04:35:34.557Z,13.1
2022-12-31T04:45:37.038Z,13.3
2022-12-31T04:55:39.036Z,13.7
2022-12-31T05:05:41.302Z,14.1
2022-12-31T05:15:43.160Z,14.5
2022-12-31T05:35:48.180Z,15.2
2022-12-31T05:45:50.122Z,15.3
2022-12-31T05:55:51.858Z,15.6
2022-12-31T06:05:54.268Z,15.6
2022-12-31T06:15:56.713Z,15.7
2022-12-31T06:25:58.428Z,15.5
2022-12-31T06:36:00.309Z,15.4
2022-12-31T06:46:02.922Z,15.8
2022-12-31T06:56:05.034Z,15.8
2022-12-31T07:06:07.650Z,15.8
2022-12-31T07:16:09.384Z,15.8
2022-12-31T07:26:11.474Z,15.9
2022-12-31T07:36:13.282Z,16
2022-12-31T07:46:15.400Z,15.8
2022-12-31T07:56:17.375Z,16
2022-12-31T08:06:19.033Z,16.1
2022-12-31T08:16:20.991Z,16
2022-12-31T08:26:23.085Z,16
2022-12-31T08:36:24.989Z,16.3
2022-12-31T08:46:27.096Z,16.3
2022-12-31T08:56:29.550Z,16.4
2022-12-31T09:16:34.369Z,16.5
2022-12-31T09:18:01.754Z,16.5
2022-12-31T09:26:44.951Z,16.4
2022-12-31T09:56:57.197Z,16.3
2022-12-31T10:16:56.795Z,15.6
2022-12-31T10:26:59.101Z,16
2022-12-31T10:37:01.259Z,16.4
2022-12-31T10:47:03.389Z,16.3
2022-12-31T10:57:05.325Z,16.4
2022-12-31T11:17:09.917Z,16.7
2022-12-31T11:27:11.642Z,16.8
2022-12-31T11:37:14.303Z,16.8
2022-12-31T11:47:16.455Z,16.8
2022-12-31T11:57:18.090Z,16.7
2022-12-31T12:07:20.480Z,16.6
2022-12-31T12:17:22.769Z,16.6
2022-12-31T12:27:24.958Z,16.5
2022-12-31T12:37:26.966Z,16.3
2022-12-31T12:47:29.205Z,16.1
2022-12-31T12:57:31.749Z,15.3
2022-12-31T13:07:33.606Z,15.3
2022-12-31T13:17:35.773Z,15.4
2022-12-31T13:27:37.514Z,15.6
2022-12-31T13:37:39.976Z,15.9
2022-12-31T13:47:42.222Z,16
2022-12-31T13:57:44.534Z,16.2
2022-12-31T14:07:46.474Z,15.7
2022-12-31T14:17:48.656Z,15.6
2022-12-31T14:27:50.523Z,15.8
2022-12-31T14:37:53.090Z,15.8
2022-12-31T14:47:55.463Z,15.9
2022-12-31T14:58:26.874Z,16
2022-12-31T15:07:59.798Z,15.8
2022-12-31T15:18:01.936Z,15.6
2022-12-31T15:28:03.933Z,15.3
2022-12-31T15:38:05.952Z,15.3
2022-12-31T15:48:07.648Z,15
2022-12-31T15:58:09.532Z,15.1
2022-12-31T16:08:11.550Z,15
2022-12-31T16:18:18.887Z,15.2
2022-12-31T16:28:16.068Z,15.8
2022-12-31T16:38:17.684Z,15.8
2022-12-31T16:48:19.864Z,16
2022-12-31T16:58:22.349Z,15.8
2022-12-31T17:08:24.664Z,15.8
2022-12-31T17:18:27.244Z,15.7
2022-12-31T17:28:29.140Z,15.8
2022-12-31T17:38:31.805Z,15.9
2022-12-31T17:48:33.682Z,15.5
2022-12-31T17:58:35.408Z,15.6
2022-12-31T18:08:37.191Z,15.9
2022-12-31T18:18:39.107Z,15.6
2022-12-31T18:28:41.306Z,15.5
2022-12-31T18:38:43.651Z,15.4
2022-12-31T18:48:45.825Z,15.4
2022-12-31T18:58:47.515Z,15.3
2022-12-31T19:08:50.157Z,15.2
2022-12-31T19:18:52.515Z,15.2
2022-12-31T19:28:54.885Z,15.3
2022-12-31T19:38:57.143Z,15.3
2022-12-31T19:48:58.915Z,15.4
2022-12-31T19:59:00.604Z,15.3
2022-12-31T20:09:02.677Z,15.3
2022-12-31T20:19:04.917Z,15.5
2022-12-31T20:29:07.449Z,15.5
2022-12-31T20:39:09.733Z,15.5
2022-12-31T20:49:12.102Z,15.5
2022-12-31T20:59:13.838Z,15.5
2022-12-31T21:09:16.421Z,15.6
2022-12-31T21:19:18.676Z,15.6
2022-12-31T21:29:21.064Z,15.6
2022-12-31T21:39:23.054Z,15.6
2022-12-31T21:49:24.876Z,15.6
2022-12-31T22:09:29.341Z,15.9
2022-12-31T22:19:31.021Z,16
2022-12-31T22:29:33.210Z,15.9
2022-12-31T22:39:43.131Z,16
2022-12-31T22:49:38.123Z,16
2022-12-31T22:59:40.112Z,16.1
2022-12-31T23:09:42.053Z,16.1
2022-12-31T23:19:43.768Z,16.3
2022-12-31T23:29:47.372Z,16.2
2022-12-31T23:39:48.831Z,16.1
2022-12-31T23:49:51.494Z,16.1
2022-12-31T23:59:53.221Z,16.1
